sensor_id;sensor_type;location;lat;lon;timestamp;P1;durP1;ratioP1;P2;durP2;ratioP2
12135;SDS011;6131;56.420;15.548;2023-03-20T00:01:35;46.73;;;10.23;;
12135;SDS011;6131;56.420;15.548;2023-03-20T00:04:02;28.30;;;9.53;;
12135;SDS011;6131;56.420;15.548;2023-03-20T00:06:28;88.37;;;12.67;;
12135;SDS011;6131;56.420;15.548;2023-03-20T00:08:54;50.33;;;11.63;;
12135;SDS011;6131;56.420;15.548;2023-03-20T00:13:47;56.77;;;13.07;;
12135;SDS011;6131;56.420;15.548;2023-03-20T00:16:13;53.23;;;12.30;;
12135;SDS011;6131;56.420;15.548;2023-03-20T00:18:39;61.93;;;11.93;;
12135;SDS011;6131;56.420;15.548;2023-03-20T00:21:08;51.27;;;13.13;;
12135;SDS011;6131;56.420;15.548;2023-03-20T00:23:35;61.33;;;12.00;;
12135;SDS011;6131;56.420;15.548;2023-03-20T00:26:01;42.37;;;11.17;;
12135;SDS011;6131;56.420;15.548;2023-03-20T00:30:53;60.40;;;13.33;;
12135;SDS011;6131;56.420;15.548;2023-03-20T00:33:19;40.73;;;12.70;;
12135;SDS011;6131;56.420;15.548;2023-03-20T00:35:45;38.10;;;14.07;;
12135;SDS011;6131;56.420;15.548;2023-03-20T00:38:11;52.90;;;14.27;;
12135;SDS011;6131;56.420;15.548;2023-03-20T00:40:37;42.43;;;13.93;;
12135;SDS011;6131;56.420;15.548;2023-03-20T00:43:03;43.00;;;15.03;;
12135;SDS011;6131;56.420;15.548;2023-03-20T00:45:30;34.47;;;15.70;;
12135;SDS011;6131;56.420;15.548;2023-03-20T00:47:57;32.40;;;14.70;;
12135;SDS011;6131;56.420;15.548;2023-03-20T00:50:24;37.13;;;14.50;;
12135;SDS011;6131;56.420;15.548;2023-03-20T00:52:51;44.80;;;14.97;;
12135;SDS011;6131;56.420;15.548;2023-03-20T00:55:18;29.83;;;15.73;;
12135;SDS011;6131;56.420;15.548;2023-03-20T00:57:49;34.50;;;16.97;;
12135;SDS011;6131;56.420;15.548;2023-03-20T01:02:57;78.77;;;16.00;;
12135;SDS011;6131;56.420;15.548;2023-03-20T01:05:24;38.37;;;16.13;;
12135;SDS011;6131;56.420;15.548;2023-03-20T01:07:51;38.00;;;15.37;;
12135;SDS011;6131;56.420;15.548;2023-03-20T01:10:17;38.60;;;15.43;;
12135;SDS011;6131;56.420;15.548;2023-03-20T01:12:43;40.90;;;16.30;;
12135;SDS011;6131;56.420;15.548;2023-03-20T01:15:15;35.83;;;15.43;;
12135;SDS011;6131;56.420;15.548;2023-03-20T01:17:41;48.33;;;15.40;;
12135;SDS011;6131;56.420;15.548;2023-03-20T01:20:09;41.47;;;15.17;;
12135;SDS011;6131;56.420;15.548;2023-03-20T01:22:39;39.67;;;15.40;;
12135;SDS011;6131;56.420;15.548;2023-03-20T01:25:05;30.30;;;14.93;;
12135;SDS011;6131;56.420;15.548;2023-03-20T01:27:31;35.63;;;14.47;;
12135;SDS011;6131;56.420;15.548;2023-03-20T01:29:57;34.23;;;14.07;;
12135;SDS011;6131;56.420;15.548;2023-03-20T01:32:23;44.17;;;13.80;;
12135;SDS011;6131;56.420;15.548;2023-03-20T01:34:50;26.03;;;13.50;;
12135;SDS011;6131;56.420;15.548;2023-03-20T01:37:17;51.17;;;14.03;;
12135;SDS011;6131;56.420;15.548;2023-03-20T01:39:47;25.33;;;12.80;;
12135;SDS011;6131;56.420;15.548;2023-03-20T01:42:14;35.63;;;13.03;;
12135;SDS011;6131;56.420;15.548;2023-03-20T01:44:41;29.47;;;12.50;;
12135;SDS011;6131;56.420;15.548;2023-03-20T01:47:20;37.17;;;12.63;;
12135;SDS011;6131;56.420;15.548;2023-03-20T01:52:31;35.37;;;12.77;;
12135;SDS011;6131;56.420;15.548;2023-03-20T01:54:57;22.77;;;12.23;;
12135;SDS011;6131;56.420;15.548;2023-03-20T01:57:23;30.87;;;12.60;;
12135;SDS011;6131;56.420;15.548;2023-03-20T01:59:51;28.87;;;12.20;;
12135;SDS011;6131;56.420;15.548;2023-03-20T02:02:20;24.27;;;11.70;;
12135;SDS011;6131;56.420;15.548;2023-03-20T02:04:48;27.00;;;11.67;;
12135;SDS011;6131;56.420;15.548;2023-03-20T02:07:15;25.13;;;11.93;;
12135;SDS011;6131;56.420;15.548;2023-03-20T02:09:42;30.80;;;11.97;;
12135;SDS011;6131;56.420;15.548;2023-03-20T02:12:09;24.80;;;11.60;;
12135;SDS011;6131;56.420;15.548;2023-03-20T02:14:35;22.13;;;10.93;;
12135;SDS011;6131;56.420;15.548;2023-03-20T02:17:05;29.80;;;11.10;;
12135;SDS011;6131;56.420;15.548;2023-03-20T02:25:00;30.30;;;11.50;;
12135;SDS011;6131;56.420;15.548;2023-03-20T02:30:26;25.23;;;10.90;;
12135;SDS011;6131;56.420;15.548;2023-03-20T02:38:20;19.43;;;11.37;;
12135;SDS011;6131;56.420;15.548;2023-03-20T02:56:07;26.13;;;10.83;;
12135;SDS011;6131;56.420;15.548;2023-03-20T03:01:34;22.60;;;10.83;;
12135;SDS011;6131;56.420;15.548;2023-03-20T03:04:03;26.87;;;11.07;;
12135;SDS011;6131;56.420;15.548;2023-03-20T03:06:34;21.13;;;10.10;;
12135;SDS011;6131;56.420;15.548;2023-03-20T03:09:05;22.67;;;9.63;;
12135;SDS011;6131;56.420;15.548;2023-03-20T03:11:33;21.83;;;10.50;;
12135;SDS011;6131;56.420;15.548;2023-03-20T03:14:00;20.03;;;9.50;;
12135;SDS011;6131;56.420;15.548;2023-03-20T03:16:28;21.40;;;9.73;;
12135;SDS011;6131;56.420;15.548;2023-03-20T03:18:59;22.63;;;9.60;;
12135;SDS011;6131;56.420;15.548;2023-03-20T03:21:26;23.87;;;9.80;;
12135;SDS011;6131;56.420;15.548;2023-03-20T03:23:53;21.17;;;10.30;;
12135;SDS011;6131;56.420;15.548;2023-03-20T03:26:21;19.67;;;9.50;;
12135;SDS011;6131;56.420;15.548;2023-03-20T03:28:56;19.87;;;10.13;;
12135;SDS011;6131;56.420;15.548;2023-03-20T03:31:22;24.17;;;10.07;;
12135;SDS011;6131;56.420;15.548;2023-03-20T03:33:50;26.33;;;10.93;;
12135;SDS011;6131;56.420;15.548;2023-03-20T03:36:26;24.57;;;10.30;;
12135;SDS011;6131;56.420;15.548;2023-03-20T03:38:57;21.00;;;10.13;;
12135;SDS011;6131;56.420;15.548;2023-03-20T03:41:34;25.30;;;11.23;;
12135;SDS011;6131;56.420;15.548;2023-03-20T03:46:41;33.33;;;11.47;;
12135;SDS011;6131;56.420;15.548;2023-03-20T03:49:09;32.80;;;12.13;;
12135;SDS011;6131;56.420;15.548;2023-03-20T03:51:38;37.37;;;12.57;;
12135;SDS011;6131;56.420;15.548;2023-03-20T03:54:11;37.90;;;12.70;;
12135;SDS011;6131;56.420;15.548;2023-03-20T03:56:39;30.23;;;12.20;;
12135;SDS011;6131;56.420;15.548;2023-03-20T03:59:07;35.83;;;12.40;;
12135;SDS011;6131;56.420;15.548;2023-03-20T04:01:34;37.13;;;12.77;;
12135;SDS011;6131;56.420;15.548;2023-03-20T04:04:02;37.10;;;11.97;;
12135;SDS011;6131;56.420;15.548;2023-03-20T04:06:29;32.07;;;12.50;;
12135;SDS011;6131;56.420;15.548;2023-03-20T04:08:56;34.77;;;12.30;;
12135;SDS011;6131;56.420;15.548;2023-03-20T04:11:23;39.73;;;12.30;;
12135;SDS011;6131;56.420;15.548;2023-03-20T04:13:50;38.73;;;11.90;;
12135;SDS011;6131;56.420;15.548;2023-03-20T04:16:17;38.53;;;11.13;;
12135;SDS011;6131;56.420;15.548;2023-03-20T04:18:43;50.23;;;12.33;;
12135;SDS011;6131;56.420;15.548;2023-03-20T04:21:09;35.63;;;11.83;;
12135;SDS011;6131;56.420;15.548;2023-03-20T04:23:35;44.03;;;12.83;;
12135;SDS011;6131;56.420;15.548;2023-03-20T04:26:02;48.63;;;11.97;;
12135;SDS011;6131;56.420;15.548;2023-03-20T04:28:28;48.73;;;11.60;;
12135;SDS011;6131;56.420;15.548;2023-03-20T04:30:55;47.63;;;13.23;;
12135;SDS011;6131;56.420;15.548;2023-03-20T04:33:21;40.40;;;11.50;;
12135;SDS011;6131;56.420;15.548;2023-03-20T04:35:47;49.30;;;12.77;;
12135;SDS011;6131;56.420;15.548;2023-03-20T04:38:13;37.83;;;11.63;;
12135;SDS011;6131;56.420;15.548;2023-03-20T04:40:39;42.23;;;11.37;;
12135;SDS011;6131;56.420;15.548;2023-03-20T04:43:05;37.00;;;10.70;;
12135;SDS011;6131;56.420;15.548;2023-03-20T04:45:31;39.13;;;12.07;;
12135;SDS011;6131;56.420;15.548;2023-03-20T04:47:57;42.17;;;11.50;;
12135;SDS011;6131;56.420;15.548;2023-03-20T04:50:23;44.67;;;11.30;;
12135;SDS011;6131;56.420;15.548;2023-03-20T04:52:49;38.37;;;11.50;;
12135;SDS011;6131;56.420;15.548;2023-03-20T04:55:16;35.13;;;11.20;;
12135;SDS011;6131;56.420;15.548;2023-03-20T04:57:42;39.63;;;11.10;;
12135;SDS011;6131;56.420;15.548;2023-03-20T05:00:08;42.37;;;9.93;;
12135;SDS011;6131;56.420;15.548;2023-03-20T05:02:35;39.17;;;10.50;;
12135;SDS011;6131;56.420;15.548;2023-03-20T05:05:01;42.47;;;11.30;;
12135;SDS011;6131;56.420;15.548;2023-03-20T05:07:27;41.57;;;10.80;;
12135;SDS011;6131;56.420;15.548;2023-03-20T05:09:53;45.07;;;10.63;;
12135;SDS011;6131;56.420;15.548;2023-03-20T05:12:19;37.80;;;11.47;;
12135;SDS011;6131;56.420;15.548;2023-03-20T05:14:46;46.33;;;11.90;;
12135;SDS011;6131;56.420;15.548;2023-03-20T05:17:12;40.37;;;11.10;;
12135;SDS011;6131;56.420;15.548;2023-03-20T05:19:38;30.30;;;10.27;;
12135;SDS011;6131;56.420;15.548;2023-03-20T05:22:07;43.27;;;11.13;;
12135;SDS011;6131;56.420;15.548;2023-03-20T05:24:33;46.40;;;12.40;;
12135;SDS011;6131;56.420;15.548;2023-03-20T05:26:59;45.00;;;11.27;;
12135;SDS011;6131;56.420;15.548;2023-03-20T05:29:25;45.20;;;11.10;;
12135;SDS011;6131;56.420;15.548;2023-03-20T05:31:51;35.17;;;11.37;;
12135;SDS011;6131;56.420;15.548;2023-03-20T05:34:19;36.80;;;11.60;;
12135;SDS011;6131;56.420;15.548;2023-03-20T05:36:45;37.23;;;12.53;;
12135;SDS011;6131;56.420;15.548;2023-03-20T05:39:11;46.57;;;12.47;;
12135;SDS011;6131;56.420;15.548;2023-03-20T05:41:37;50.40;;;12.20;;
12135;SDS011;6131;56.420;15.548;2023-03-20T05:44:03;40.03;;;11.07;;
12135;SDS011;6131;56.420;15.548;2023-03-20T05:46:29;37.57;;;12.07;;
12135;SDS011;6131;56.420;15.548;2023-03-20T05:48:55;45.90;;;12.40;;
12135;SDS011;6131;56.420;15.548;2023-03-20T05:51:21;42.57;;;13.33;;
12135;SDS011;6131;56.420;15.548;2023-03-20T05:53:47;38.07;;;12.93;;
12135;SDS011;6131;56.420;15.548;2023-03-20T05:56:13;46.13;;;12.50;;
12135;SDS011;6131;56.420;15.548;2023-03-20T05:58:40;54.73;;;12.67;;
12135;SDS011;6131;56.420;15.548;2023-03-20T06:01:06;48.37;;;13.30;;
12135;SDS011;6131;56.420;15.548;2023-03-20T06:03:32;41.50;;;12.67;;
12135;SDS011;6131;56.420;15.548;2023-03-20T06:05:58;46.90;;;13.03;;
12135;SDS011;6131;56.420;15.548;2023-03-20T06:08:24;51.93;;;13.23;;
12135;SDS011;6131;56.420;15.548;2023-03-20T06:10:50;46.43;;;13.63;;
12135;SDS011;6131;56.420;15.548;2023-03-20T06:13:16;45.47;;;13.27;;
12135;SDS011;6131;56.420;15.548;2023-03-20T06:15:42;47.67;;;13.60;;
12135;SDS011;6131;56.420;15.548;2023-03-20T06:18:08;43.60;;;12.70;;
12135;SDS011;6131;56.420;15.548;2023-03-20T06:20:34;40.67;;;13.47;;
12135;SDS011;6131;56.420;15.548;2023-03-20T06:23:00;44.93;;;13.70;;
12135;SDS011;6131;56.420;15.548;2023-03-20T06:25:26;53.13;;;12.57;;
12135;SDS011;6131;56.420;15.548;2023-03-20T06:27:52;41.03;;;13.47;;
12135;SDS011;6131;56.420;15.548;2023-03-20T06:30:18;45.93;;;13.70;;
12135;SDS011;6131;56.420;15.548;2023-03-20T06:32:44;41.77;;;13.00;;
12135;SDS011;6131;56.420;15.548;2023-03-20T06:35:11;35.03;;;12.70;;
12135;SDS011;6131;56.420;15.548;2023-03-20T06:37:38;41.63;;;13.77;;
12135;SDS011;6131;56.420;15.548;2023-03-20T06:40:04;34.23;;;13.50;;
12135;SDS011;6131;56.420;15.548;2023-03-20T06:42:30;44.77;;;13.87;;
12135;SDS011;6131;56.420;15.548;2023-03-20T06:44:56;34.87;;;13.50;;
12135;SDS011;6131;56.420;15.548;2023-03-20T06:47:22;35.70;;;12.53;;
12135;SDS011;6131;56.420;15.548;2023-03-20T06:49:48;32.93;;;13.20;;
12135;SDS011;6131;56.420;15.548;2023-03-20T06:52:15;33.57;;;13.03;;
12135;SDS011;6131;56.420;15.548;2023-03-20T06:54:42;33.80;;;12.70;;
12135;SDS011;6131;56.420;15.548;2023-03-20T06:57:08;32.23;;;13.23;;
12135;SDS011;6131;56.420;15.548;2023-03-20T06:59:34;30.70;;;12.87;;
12135;SDS011;6131;56.420;15.548;2023-03-20T07:02:00;33.40;;;13.40;;
12135;SDS011;6131;56.420;15.548;2023-03-20T07:04:26;37.60;;;13.87;;
12135;SDS011;6131;56.420;15.548;2023-03-20T07:06:52;35.23;;;13.77;;
12135;SDS011;6131;56.420;15.548;2023-03-20T07:09:18;29.33;;;12.20;;
12135;SDS011;6131;56.420;15.548;2023-03-20T07:11:46;29.70;;;13.70;;
12135;SDS011;6131;56.420;15.548;2023-03-20T07:14:12;28.67;;;12.67;;
12135;SDS011;6131;56.420;15.548;2023-03-20T07:16:38;32.23;;;14.27;;
12135;SDS011;6131;56.420;15.548;2023-03-20T07:19:04;29.27;;;12.73;;
12135;SDS011;6131;56.420;15.548;2023-03-20T07:21:30;28.20;;;13.50;;
12135;SDS011;6131;56.420;15.548;2023-03-20T07:23:57;29.13;;;13.27;;
12135;SDS011;6131;56.420;15.548;2023-03-20T07:26:23;29.57;;;13.50;;
12135;SDS011;6131;56.420;15.548;2023-03-20T07:28:49;31.27;;;13.83;;
12135;SDS011;6131;56.420;15.548;2023-03-20T07:31:20;29.80;;;13.90;;
12135;SDS011;6131;56.420;15.548;2023-03-20T07:33:46;31.50;;;13.70;;
12135;SDS011;6131;56.420;15.548;2023-03-20T07:36:13;30.80;;;14.17;;
12135;SDS011;6131;56.420;15.548;2023-03-20T07:38:39;31.67;;;14.40;;
12135;SDS011;6131;56.420;15.548;2023-03-20T07:41:05;32.27;;;14.10;;
12135;SDS011;6131;56.420;15.548;2023-03-20T07:43:31;29.97;;;14.07;;
12135;SDS011;6131;56.420;15.548;2023-03-20T07:45:57;32.33;;;14.13;;
12135;SDS011;6131;56.420;15.548;2023-03-20T07:48:26;32.33;;;13.53;;
12135;SDS011;6131;56.420;15.548;2023-03-20T07:50:52;36.23;;;15.47;;
12135;SDS011;6131;56.420;15.548;2023-03-20T07:53:18;33.53;;;15.47;;
12135;SDS011;6131;56.420;15.548;2023-03-20T07:55:44;37.33;;;14.67;;
12135;SDS011;6131;56.420;15.548;2023-03-20T07:58:10;44.30;;;16.40;;
12135;SDS011;6131;56.420;15.548;2023-03-20T08:00:36;37.87;;;15.33;;
12135;SDS011;6131;56.420;15.548;2023-03-20T08:03:02;36.63;;;16.10;;
12135;SDS011;6131;56.420;15.548;2023-03-20T08:05:28;41.23;;;15.50;;
12135;SDS011;6131;56.420;15.548;2023-03-20T08:07:54;37.93;;;14.03;;
12135;SDS011;6131;56.420;15.548;2023-03-20T08:10:20;45.30;;;16.20;;
12135;SDS011;6131;56.420;15.548;2023-03-20T08:12:46;40.73;;;15.60;;
12135;SDS011;6131;56.420;15.548;2023-03-20T08:15:12;35.30;;;15.67;;
12135;SDS011;6131;56.420;15.548;2023-03-20T08:17:42;41.57;;;15.23;;
12135;SDS011;6131;56.420;15.548;2023-03-20T08:20:08;41.37;;;16.67;;
12135;SDS011;6131;56.420;15.548;2023-03-20T08:22:35;43.23;;;16.10;;
12135;SDS011;6131;56.420;15.548;2023-03-20T08:25:01;40.87;;;16.30;;
12135;SDS011;6131;56.420;15.548;2023-03-20T08:27:27;38.20;;;16.27;;
12135;SDS011;6131;56.420;15.548;2023-03-20T08:29:53;43.87;;;17.13;;
12135;SDS011;6131;56.420;15.548;2023-03-20T08:32:19;46.20;;;16.90;;
12135;SDS011;6131;56.420;15.548;2023-03-20T08:34:45;39.70;;;15.70;;
12135;SDS011;6131;56.420;15.548;2023-03-20T08:37:11;42.03;;;17.00;;
12135;SDS011;6131;56.420;15.548;2023-03-20T08:39:38;45.03;;;16.77;;
12135;SDS011;6131;56.420;15.548;2023-03-20T08:42:04;44.50;;;16.73;;
12135;SDS011;6131;56.420;15.548;2023-03-20T08:44:30;43.00;;;16.23;;
12135;SDS011;6131;56.420;15.548;2023-03-20T08:46:56;43.43;;;16.00;;
12135;SDS011;6131;56.420;15.548;2023-03-20T08:49:23;40.90;;;16.07;;
12135;SDS011;6131;56.420;15.548;2023-03-20T08:51:49;43.33;;;16.37;;
12135;SDS011;6131;56.420;15.548;2023-03-20T08:54:15;37.33;;;15.70;;
12135;SDS011;6131;56.420;15.548;2023-03-20T08:56:43;41.93;;;15.83;;
12135;SDS011;6131;56.420;15.548;2023-03-20T08:59:09;36.83;;;16.47;;
12135;SDS011;6131;56.420;15.548;2023-03-20T09:01:36;39.47;;;16.20;;
12135;SDS011;6131;56.420;15.548;2023-03-20T09:04:02;35.63;;;15.87;;
12135;SDS011;6131;56.420;15.548;2023-03-20T09:06:28;42.93;;;16.30;;
12135;SDS011;6131;56.420;15.548;2023-03-20T09:08:55;39.37;;;17.27;;
12135;SDS011;6131;56.420;15.548;2023-03-20T09:11:21;38.47;;;15.53;;
12135;SDS011;6131;56.420;15.548;2023-03-20T09:13:47;37.40;;;15.47;;
12135;SDS011;6131;56.420;15.548;2023-03-20T09:16:13;37.10;;;15.17;;
12135;SDS011;6131;56.420;15.548;2023-03-20T09:18:39;37.30;;;15.33;;
12135;SDS011;6131;56.420;15.548;2023-03-20T09:21:05;38.23;;;15.60;;
12135;SDS011;6131;56.420;15.548;2023-03-20T09:23:31;38.97;;;16.47;;
12135;SDS011;6131;56.420;15.548;2023-03-20T09:25:58;36.20;;;15.00;;
12135;SDS011;6131;56.420;15.548;2023-03-20T09:28:24;38.10;;;16.67;;
12135;SDS011;6131;56.420;15.548;2023-03-20T09:30:54;33.23;;;14.03;;
12135;SDS011;6131;56.420;15.548;2023-03-20T09:33:20;27.93;;;14.33;;
12135;SDS011;6131;56.420;15.548;2023-03-20T09:35:46;32.90;;;14.40;;
12135;SDS011;6131;56.420;15.548;2023-03-20T09:38:12;30.70;;;13.73;;
12135;SDS011;6131;56.420;15.548;2023-03-20T09:43:28;28.17;;;13.37;;
12135;SDS011;6131;56.420;15.548;2023-03-20T09:48:39;26.37;;;12.97;;
12135;SDS011;6131;56.420;15.548;2023-03-20T09:51:09;30.87;;;13.90;;
12135;SDS011;6131;56.420;15.548;2023-03-20T09:53:41;26.87;;;13.77;;
12135;SDS011;6131;56.420;15.548;2023-03-20T09:56:12;25.53;;;13.10;;
12135;SDS011;6131;56.420;15.548;2023-03-20T09:58:39;22.33;;;11.90;;
12135;SDS011;6131;56.420;15.548;2023-03-20T10:01:06;23.87;;;12.87;;
12135;SDS011;6131;56.420;15.548;2023-03-20T10:06:02;23.93;;;11.77;;
12135;SDS011;6131;56.420;15.548;2023-03-20T10:08:34;22.03;;;11.17;;
12135;SDS011;6131;56.420;15.548;2023-03-20T10:18:33;20.03;;;10.63;;
12135;SDS011;6131;56.420;15.548;2023-03-20T10:21:11;20.07;;;10.77;;
12135;SDS011;6131;56.420;15.548;2023-03-20T10:26:23;19.30;;;10.33;;
12135;SDS011;6131;56.420;15.548;2023-03-20T10:29:00;19.53;;;10.87;;
12135;SDS011;6131;56.420;15.548;2023-03-20T10:31:42;17.47;;;10.47;;
12135;SDS011;6131;56.420;15.548;2023-03-20T10:41:51;20.17;;;10.23;;
12135;SDS011;6131;56.420;15.548;2023-03-20T10:44:21;17.20;;;9.83;;
12135;SDS011;6131;56.420;15.548;2023-03-20T10:46:50;18.77;;;9.90;;
12135;SDS011;6131;56.420;15.548;2023-03-20T10:49:19;18.00;;;9.97;;
12135;SDS011;6131;56.420;15.548;2023-03-20T10:51:54;17.77;;;9.77;;
12135;SDS011;6131;56.420;15.548;2023-03-20T10:54:25;18.83;;;10.60;;
12135;SDS011;6131;56.420;15.548;2023-03-20T10:56:53;18.77;;;10.27;;
12135;SDS011;6131;56.420;15.548;2023-03-20T10:59:24;20.23;;;10.10;;
12135;SDS011;6131;56.420;15.548;2023-03-20T11:01:51;19.07;;;10.90;;
12135;SDS011;6131;56.420;15.548;2023-03-20T11:04:17;20.43;;;10.17;;
12135;SDS011;6131;56.420;15.548;2023-03-20T11:06:52;18.53;;;10.03;;
12135;SDS011;6131;56.420;15.548;2023-03-20T11:09:20;18.07;;;9.73;;
12135;SDS011;6131;56.420;15.548;2023-03-20T11:11:47;19.93;;;10.00;;
12135;SDS011;6131;56.420;15.548;2023-03-20T11:14:18;18.07;;;9.83;;
12135;SDS011;6131;56.420;15.548;2023-03-20T11:16:49;18.00;;;9.40;;
12135;SDS011;6131;56.420;15.548;2023-03-20T11:19:15;15.63;;;9.23;;
12135;SDS011;6131;56.420;15.548;2023-03-20T11:21:45;15.03;;;8.80;;
12135;SDS011;6131;56.420;15.548;2023-03-20T11:26:46;13.57;;;8.13;;
12135;SDS011;6131;56.420;15.548;2023-03-20T11:29:31;13.37;;;8.00;;
12135;SDS011;6131;56.420;15.548;2023-03-20T11:32:03;12.43;;;7.60;;
12135;SDS011;6131;56.420;15.548;2023-03-20T11:34:30;11.30;;;6.90;;
12135;SDS011;6131;56.420;15.548;2023-03-20T11:36:59;11.50;;;6.73;;
12135;SDS011;6131;56.420;15.548;2023-03-20T11:39:29;10.23;;;6.67;;
12135;SDS011;6131;56.420;15.548;2023-03-20T11:41:58;10.17;;;5.60;;
12135;SDS011;6131;56.420;15.548;2023-03-20T11:46:58;6.43;;;4.40;;
12135;SDS011;6131;56.420;15.548;2023-03-20T11:49:27;7.57;;;4.60;;
12135;SDS011;6131;56.420;15.548;2023-03-20T11:51:55;7.13;;;4.40;;
12135;SDS011;6131;56.420;15.548;2023-03-20T11:54:22;6.07;;;4.20;;
12135;SDS011;6131;56.420;15.548;2023-03-20T11:56:55;5.60;;;3.90;;
12135;SDS011;6131;56.420;15.548;2023-03-20T11:59:21;4.60;;;3.20;;
12135;SDS011;6131;56.420;15.548;2023-03-20T12:01:51;3.30;;;3.00;;
12135;SDS011;6131;56.420;15.548;2023-03-20T12:04:27;3.67;;;2.50;;
12135;SDS011;6131;56.420;15.548;2023-03-20T12:09:43;2.07;;;1.80;;
12135;SDS011;6131;56.420;15.548;2023-03-20T12:14:40;1.63;;;1.37;;
12135;SDS011;6131;56.420;15.548;2023-03-20T12:19:52;1.33;;;1.10;;
12135;SDS011;6131;56.420;15.548;2023-03-20T12:22:32;1.27;;;1.00;;
12135;SDS011;6131;56.420;15.548;2023-03-20T12:27:35;1.10;;;1.00;;
12135;SDS011;6131;56.420;15.548;2023-03-20T12:33:06;1.57;;;0.90;;
12135;SDS011;6131;56.420;15.548;2023-03-20T12:35:35;1.90;;;0.70;;
12135;SDS011;6131;56.420;15.548;2023-03-20T12:38:03;1.00;;;0.70;;
12135;SDS011;6131;56.420;15.548;2023-03-20T12:40:37;0.77;;;0.60;;
12135;SDS011;6131;56.420;15.548;2023-03-20T12:43:14;0.90;;;0.60;;
12135;SDS011;6131;56.420;15.548;2023-03-20T12:45:45;0.60;;;0.40;;
12135;SDS011;6131;56.420;15.548;2023-03-20T12:50:54;0.50;;;0.50;;
12135;SDS011;6131;56.420;15.548;2023-03-20T13:01:21;0.47;;;0.30;;
12135;SDS011;6131;56.420;15.548;2023-03-20T13:06:22;0.70;;;0.57;;
12135;SDS011;6131;56.420;15.548;2023-03-20T13:09:00;0.53;;;0.40;;
12135;SDS011;6131;56.420;15.548;2023-03-20T13:14:07;0.53;;;0.33;;
12135;SDS011;6131;56.420;15.548;2023-03-20T13:16:39;0.50;;;0.40;;
12135;SDS011;6131;56.420;15.548;2023-03-20T13:19:24;0.50;;;0.27;;
12135;SDS011;6131;56.420;15.548;2023-03-20T13:21:57;0.40;;;0.30;;
12135;SDS011;6131;56.420;15.548;2023-03-20T13:25:00;1.27;;;0.97;;
12135;SDS011;6131;56.420;15.548;2023-03-20T13:34:49;0.40;;;0.30;;
12135;SDS011;6131;56.420;15.548;2023-03-20T13:37:31;0.50;;;0.40;;
12135;SDS011;6131;56.420;15.548;2023-03-20T13:42:44;0.40;;;0.20;;
12135;SDS011;6131;56.420;15.548;2023-03-20T13:45:18;0.40;;;0.13;;
12135;SDS011;6131;56.420;15.548;2023-03-20T13:47:46;0.90;;;0.50;;
12135;SDS011;6131;56.420;15.548;2023-03-20T13:53:24;0.60;;;0.40;;
12135;SDS011;6131;56.420;15.548;2023-03-20T13:58:36;1.17;;;0.60;;
12135;SDS011;6131;56.420;15.548;2023-03-20T14:01:06;0.57;;;0.50;;
12135;SDS011;6131;56.420;15.548;2023-03-20T14:03:39;0.50;;;0.40;;
12135;SDS011;6131;56.420;15.548;2023-03-20T14:06:16;0.60;;;0.20;;
12135;SDS011;6131;56.420;15.548;2023-03-20T14:08:46;0.80;;;0.30;;
12135;SDS011;6131;56.420;15.548;2023-03-20T14:11:14;0.40;;;0.20;;
12135;SDS011;6131;56.420;15.548;2023-03-20T14:16:29;0.53;;;0.30;;
12135;SDS011;6131;56.420;15.548;2023-03-20T14:21:39;0.97;;;0.70;;
12135;SDS011;6131;56.420;15.548;2023-03-20T14:24:09;0.77;;;0.43;;
12135;SDS011;6131;56.420;15.548;2023-03-20T14:26:37;0.50;;;0.40;;
12135;SDS011;6131;56.420;15.548;2023-03-20T14:31:38;1.20;;;0.80;;
12135;SDS011;6131;56.420;15.548;2023-03-20T14:34:07;0.90;;;0.20;;
12135;SDS011;6131;56.420;15.548;2023-03-20T14:36:43;0.50;;;0.20;;
12135;SDS011;6131;56.420;15.548;2023-03-20T14:47:05;0.50;;;0.20;;
12135;SDS011;6131;56.420;15.548;2023-03-20T14:49:42;0.40;;;0.30;;
12135;SDS011;6131;56.420;15.548;2023-03-20T14:54:39;0.80;;;0.33;;
12135;SDS011;6131;56.420;15.548;2023-03-20T14:57:14;1.80;;;0.40;;
12135;SDS011;6131;56.420;15.548;2023-03-20T14:59:41;3.97;;;0.47;;
12135;SDS011;6131;56.420;15.548;2023-03-20T15:02:17;1.83;;;1.40;;
12135;SDS011;6131;56.420;15.548;2023-03-20T15:04:46;0.90;;;0.40;;
12135;SDS011;6131;56.420;15.548;2023-03-20T15:07:16;0.97;;;0.50;;
12135;SDS011;6131;56.420;15.548;2023-03-20T15:09:47;1.50;;;0.33;;
12135;SDS011;6131;56.420;15.548;2023-03-20T15:12:16;1.13;;;0.57;;
12135;SDS011;6131;56.420;15.548;2023-03-20T15:14:43;2.40;;;0.30;;
12135;SDS011;6131;56.420;15.548;2023-03-20T15:17:18;1.63;;;0.40;;
12135;SDS011;6131;56.420;15.548;2023-03-20T15:19:44;0.40;;;0.20;;
12135;SDS011;6131;56.420;15.548;2023-03-20T15:22:14;0.40;;;0.20;;
12135;SDS011;6131;56.420;15.548;2023-03-20T15:24:41;0.47;;;0.30;;
12135;SDS011;6131;56.420;15.548;2023-03-20T15:27:10;0.67;;;0.50;;
12135;SDS011;6131;56.420;15.548;2023-03-20T15:29:37;0.47;;;0.30;;
12135;SDS011;6131;56.420;15.548;2023-03-20T15:32:03;1.17;;;0.30;;
12135;SDS011;6131;56.420;15.548;2023-03-20T15:34:30;2.30;;;0.33;;
12135;SDS011;6131;56.420;15.548;2023-03-20T15:36:58;0.70;;;0.50;;
12135;SDS011;6131;56.420;15.548;2023-03-20T15:39:25;0.80;;;0.50;;
12135;SDS011;6131;56.420;15.548;2023-03-20T15:41:56;0.57;;;0.40;;
12135;SDS011;6131;56.420;15.548;2023-03-20T15:44:26;0.60;;;0.30;;
12135;SDS011;6131;56.420;15.548;2023-03-20T15:49:22;0.47;;;0.30;;
12135;SDS011;6131;56.420;15.548;2023-03-20T15:51:48;1.00;;;0.20;;
12135;SDS011;6131;56.420;15.548;2023-03-20T15:54:16;0.40;;;0.10;;
12135;SDS011;6131;56.420;15.548;2023-03-20T15:56:43;0.53;;;0.20;;
12135;SDS011;6131;56.420;15.548;2023-03-20T15:59:17;0.40;;;0.20;;
12135;SDS011;6131;56.420;15.548;2023-03-20T16:01:44;1.20;;;0.23;;
12135;SDS011;6131;56.420;15.548;2023-03-20T16:04:17;0.40;;;0.20;;
12135;SDS011;6131;56.420;15.548;2023-03-20T16:06:44;0.57;;;0.30;;
12135;SDS011;6131;56.420;15.548;2023-03-20T16:09:11;0.40;;;0.20;;
12135;SDS011;6131;56.420;15.548;2023-03-20T16:11:39;1.20;;;0.30;;
12135;SDS011;6131;56.420;15.548;2023-03-20T16:14:06;0.40;;;0.30;;
12135;SDS011;6131;56.420;15.548;2023-03-20T16:16:35;1.43;;;0.60;;
12135;SDS011;6131;56.420;15.548;2023-03-20T16:19:02;0.87;;;0.50;;
12135;SDS011;6131;56.420;15.548;2023-03-20T16:21:30;0.80;;;0.47;;
12135;SDS011;6131;56.420;15.548;2023-03-20T16:23:57;2.57;;;0.60;;
12135;SDS011;6131;56.420;15.548;2023-03-20T16:26:24;1.73;;;0.60;;
12135;SDS011;6131;56.420;15.548;2023-03-20T16:28:53;2.87;;;0.80;;
12135;SDS011;6131;56.420;15.548;2023-03-20T16:31:21;3.03;;;0.80;;
12135;SDS011;6131;56.420;15.548;2023-03-20T16:33:47;1.10;;;0.60;;
12135;SDS011;6131;56.420;15.548;2023-03-20T16:36:35;2.67;;;0.70;;
12135;SDS011;6131;56.420;15.548;2023-03-20T16:41:33;2.33;;;0.80;;
12135;SDS011;6131;56.420;15.548;2023-03-20T16:44:04;1.13;;;0.53;;
12135;SDS011;6131;56.420;15.548;2023-03-20T16:46:30;2.47;;;0.90;;
12135;SDS011;6131;56.420;15.548;2023-03-20T16:48:57;1.27;;;0.80;;
12135;SDS011;6131;56.420;15.548;2023-03-20T16:51:24;3.23;;;0.90;;
12135;SDS011;6131;56.420;15.548;2023-03-20T16:54:00;1.53;;;0.67;;
12135;SDS011;6131;56.420;15.548;2023-03-20T16:56:27;5.33;;;1.10;;
12135;SDS011;6131;56.420;15.548;2023-03-20T16:58:53;2.60;;;0.90;;